sensor_id;sensor_type;location;lat;lon;timestamp;P1;durP1;ratioP1;P2;durP2;ratioP2
54823;SDS011;40724;53.196;5.980;2023-02-11T00:02:25;14.02;;;6.38;;
54823;SDS011;40724;53.196;5.980;2023-02-11T00:04:53;20.90;;;7.45;;
54823;SDS011;40724;53.196;5.980;2023-02-11T00:07:19;17.30;;;7.15;;
54823;SDS011;40724;53.196;5.980;2023-02-11T00:09:45;21.67;;;7.45;;
54823;SDS011;40724;53.196;5.980;2023-02-11T00:12:11;25.13;;;7.88;;
54823;SDS011;40724;53.196;5.980;2023-02-11T00:14:36;17.35;;;6.75;;
54823;SDS011;40724;53.196;5.980;2023-02-11T00:17:02;21.05;;;6.63;;
54823;SDS011;40724;53.196;5.980;2023-02-11T00:19:28;20.67;;;7.53;;
54823;SDS011;40724;53.196;5.980;2023-02-11T00:21:54;19.33;;;8.27;;
54823;SDS011;40724;53.196;5.980;2023-02-11T00:24:19;18.77;;;6.97;;
54823;SDS011;40724;53.196;5.980;2023-02-11T00:26:45;22.02;;;7.53;;
54823;SDS011;40724;53.196;5.980;2023-02-11T00:29:11;17.88;;;7.80;;
54823;SDS011;40724;53.196;5.980;2023-02-11T00:31:37;21.65;;;7.25;;
54823;SDS011;40724;53.196;5.980;2023-02-11T00:34:02;13.48;;;6.95;;
54823;SDS011;40724;53.196;5.980;2023-02-11T00:36:28;22.17;;;7.85;;
54823;SDS011;40724;53.196;5.980;2023-02-11T00:38:55;20.77;;;7.18;;
54823;SDS011;40724;53.196;5.980;2023-02-11T00:41:21;16.35;;;7.32;;
54823;SDS011;40724;53.196;5.980;2023-02-11T00:43:48;20.83;;;7.80;;
54823;SDS011;40724;53.196;5.980;2023-02-11T00:46:14;22.23;;;8.63;;
54823;SDS011;40724;53.196;5.980;2023-02-11T00:48:40;18.90;;;8.55;;
54823;SDS011;40724;53.196;5.980;2023-02-11T00:51:06;20.13;;;10.13;;
54823;SDS011;40724;53.196;5.980;2023-02-11T00:53:32;19.38;;;8.73;;
54823;SDS011;40724;53.196;5.980;2023-02-11T00:55:59;24.00;;;9.48;;
54823;SDS011;40724;53.196;5.980;2023-02-11T00:58:25;22.17;;;10.73;;
54823;SDS011;40724;53.196;5.980;2023-02-11T01:00:52;23.45;;;8.88;;
54823;SDS011;40724;53.196;5.980;2023-02-11T01:03:18;21.73;;;9.68;;
54823;SDS011;40724;53.196;5.980;2023-02-11T01:05:44;25.85;;;10.05;;
54823;SDS011;40724;53.196;5.980;2023-02-11T01:08:10;21.75;;;10.02;;
54823;SDS011;40724;53.196;5.980;2023-02-11T01:10:36;25.02;;;9.85;;
54823;SDS011;40724;53.196;5.980;2023-02-11T01:13:01;24.08;;;10.82;;
54823;SDS011;40724;53.196;5.980;2023-02-11T01:15:28;16.10;;;9.77;;
54823;SDS011;40724;53.196;5.980;2023-02-11T01:17:54;30.40;;;11.27;;
54823;SDS011;40724;53.196;5.980;2023-02-11T01:20:21;23.13;;;10.60;;
54823;SDS011;40724;53.196;5.980;2023-02-11T01:22:48;26.48;;;10.77;;
54823;SDS011;40724;53.196;5.980;2023-02-11T01:25:14;20.60;;;10.30;;
54823;SDS011;40724;53.196;5.980;2023-02-11T01:27:40;27.38;;;11.27;;
54823;SDS011;40724;53.196;5.980;2023-02-11T01:30:07;24.02;;;11.73;;
54823;SDS011;40724;53.196;5.980;2023-02-11T01:32:34;27.55;;;11.90;;
54823;SDS011;40724;53.196;5.980;2023-02-11T01:35:00;21.65;;;12.98;;
54823;SDS011;40724;53.196;5.980;2023-02-11T01:37:26;25.80;;;11.93;;
54823;SDS011;40724;53.196;5.980;2023-02-11T01:39:52;24.98;;;11.65;;
54823;SDS011;40724;53.196;5.980;2023-02-11T01:42:20;22.23;;;11.13;;
54823;SDS011;40724;53.196;5.980;2023-02-11T01:44:50;32.25;;;12.43;;
54823;SDS011;40724;53.196;5.980;2023-02-11T01:47:17;22.92;;;11.38;;
54823;SDS011;40724;53.196;5.980;2023-02-11T01:49:45;26.13;;;11.63;;
54823;SDS011;40724;53.196;5.980;2023-02-11T01:52:18;23.27;;;12.48;;
54823;SDS011;40724;53.196;5.980;2023-02-11T01:54:50;25.55;;;13.32;;
54823;SDS011;40724;53.196;5.980;2023-02-11T01:57:37;26.38;;;11.63;;
54823;SDS011;40724;53.196;5.980;2023-02-11T02:08:12;23.73;;;11.63;;
54823;SDS011;40724;53.196;5.980;2023-02-11T02:10:46;28.60;;;13.98;;
54823;SDS011;40724;53.196;5.980;2023-02-11T02:13:14;28.98;;;12.70;;
54823;SDS011;40724;53.196;5.980;2023-02-11T02:29:05;27.23;;;14.60;;
54823;SDS011;40724;53.196;5.980;2023-02-11T02:31:40;29.88;;;13.73;;
54823;SDS011;40724;53.196;5.980;2023-02-11T02:36:59;23.30;;;13.18;;
54823;SDS011;40724;53.196;5.980;2023-02-11T02:41:54;21.48;;;13.05;;
54823;SDS011;40724;53.196;5.980;2023-02-11T02:44:21;23.80;;;13.02;;
54823;SDS011;40724;53.196;5.980;2023-02-11T02:46:47;29.77;;;14.77;;
54823;SDS011;40724;53.196;5.980;2023-02-11T02:49:14;26.85;;;15.98;;
54823;SDS011;40724;53.196;5.980;2023-02-11T03:00:36;32.25;;;15.77;;
54823;SDS011;40724;53.196;5.980;2023-02-11T03:03:16;28.10;;;15.35;;
54823;SDS011;40724;53.196;5.980;2023-02-11T03:06:07;26.23;;;14.93;;
54823;SDS011;40724;53.196;5.980;2023-02-11T03:08:39;29.10;;;15.40;;
54823;SDS011;40724;53.196;5.980;2023-02-11T03:11:07;26.40;;;15.85;;
54823;SDS011;40724;53.196;5.980;2023-02-11T03:13:34;33.38;;;15.82;;
54823;SDS011;40724;53.196;5.980;2023-02-11T03:16:14;30.08;;;15.75;;
54823;SDS011;40724;53.196;5.980;2023-02-11T03:19:05;31.02;;;16.48;;
54823;SDS011;40724;53.196;5.980;2023-02-11T03:21:48;29.08;;;16.40;;
54823;SDS011;40724;53.196;5.980;2023-02-11T03:24:18;28.58;;;16.67;;
54823;SDS011;40724;53.196;5.980;2023-02-11T03:35:13;28.52;;;16.10;;
54823;SDS011;40724;53.196;5.980;2023-02-11T03:37:51;31.58;;;15.15;;
54823;SDS011;40724;53.196;5.980;2023-02-11T03:40:37;23.05;;;14.38;;
54823;SDS011;40724;53.196;5.980;2023-02-11T03:43:13;28.30;;;14.02;;
54823;SDS011;40724;53.196;5.980;2023-02-11T03:45:45;27.38;;;16.48;;
54823;SDS011;40724;53.196;5.980;2023-02-11T03:50:40;25.35;;;15.50;;
54823;SDS011;40724;53.196;5.980;2023-02-11T03:53:07;23.65;;;15.48;;
54823;SDS011;40724;53.196;5.980;2023-02-11T03:55:36;27.40;;;14.88;;
54823;SDS011;40724;53.196;5.980;2023-02-11T03:58:04;30.40;;;14.63;;
54823;SDS011;40724;53.196;5.980;2023-02-11T04:00:31;29.05;;;14.43;;
54823;SDS011;40724;53.196;5.980;2023-02-11T04:02:58;30.10;;;15.60;;
54823;SDS011;40724;53.196;5.980;2023-02-11T04:05:24;29.58;;;13.93;;
54823;SDS011;40724;53.196;5.980;2023-02-11T04:07:50;24.73;;;15.57;;
54823;SDS011;40724;53.196;5.980;2023-02-11T04:10:16;29.15;;;14.65;;
54823;SDS011;40724;53.196;5.980;2023-02-11T04:12:42;27.67;;;14.43;;
54823;SDS011;40724;53.196;5.980;2023-02-11T04:15:08;24.98;;;14.90;;
54823;SDS011;40724;53.196;5.980;2023-02-11T04:17:34;28.02;;;15.95;;
54823;SDS011;40724;53.196;5.980;2023-02-11T04:20:00;24.92;;;15.82;;
54823;SDS011;40724;53.196;5.980;2023-02-11T04:22:26;29.42;;;14.77;;
54823;SDS011;40724;53.196;5.980;2023-02-11T04:24:51;26.77;;;14.50;;
54823;SDS011;40724;53.196;5.980;2023-02-11T04:27:17;24.83;;;13.88;;
54823;SDS011;40724;53.196;5.980;2023-02-11T04:29:43;23.02;;;13.88;;
54823;SDS011;40724;53.196;5.980;2023-02-11T04:32:09;28.02;;;15.07;;
54823;SDS011;40724;53.196;5.980;2023-02-11T04:34:36;27.17;;;16.73;;
54823;SDS011;40724;53.196;5.980;2023-02-11T04:37:02;26.13;;;13.93;;
54823;SDS011;40724;53.196;5.980;2023-02-11T04:39:28;25.45;;;14.77;;
54823;SDS011;40724;53.196;5.980;2023-02-11T04:41:54;23.33;;;12.85;;
54823;SDS011;40724;53.196;5.980;2023-02-11T04:44:20;22.73;;;14.23;;
54823;SDS011;40724;53.196;5.980;2023-02-11T04:46:46;28.02;;;14.00;;
54823;SDS011;40724;53.196;5.980;2023-02-11T04:49:12;29.88;;;18.08;;
54823;SDS011;40724;53.196;5.980;2023-02-11T04:51:39;29.75;;;13.27;;
54823;SDS011;40724;53.196;5.980;2023-02-11T04:54:05;24.95;;;14.57;;
54823;SDS011;40724;53.196;5.980;2023-02-11T04:56:31;20.70;;;12.90;;
54823;SDS011;40724;53.196;5.980;2023-02-11T04:58:57;25.05;;;12.68;;
54823;SDS011;40724;53.196;5.980;2023-02-11T05:01:23;27.95;;;13.85;;
54823;SDS011;40724;53.196;5.980;2023-02-11T05:03:48;21.60;;;13.82;;
54823;SDS011;40724;53.196;5.980;2023-02-11T05:06:15;26.40;;;13.27;;
54823;SDS011;40724;53.196;5.980;2023-02-11T05:08:41;21.58;;;13.30;;
54823;SDS011;40724;53.196;5.980;2023-02-11T05:11:08;30.20;;;13.88;;
54823;SDS011;40724;53.196;5.980;2023-02-11T05:13:41;21.77;;;12.55;;
54823;SDS011;40724;53.196;5.980;2023-02-11T05:16:07;25.73;;;13.30;;
54823;SDS011;40724;53.196;5.980;2023-02-11T05:18:33;25.90;;;11.88;;
54823;SDS011;40724;53.196;5.980;2023-02-11T05:21:06;22.75;;;13.13;;
54823;SDS011;40724;53.196;5.980;2023-02-11T05:23:32;19.65;;;12.77;;
54823;SDS011;40724;53.196;5.980;2023-02-11T05:25:58;18.58;;;12.07;;
54823;SDS011;40724;53.196;5.980;2023-02-11T05:28:24;23.20;;;13.02;;
54823;SDS011;40724;53.196;5.980;2023-02-11T05:30:50;27.30;;;12.75;;
54823;SDS011;40724;53.196;5.980;2023-02-11T05:33:16;28.10;;;13.25;;
54823;SDS011;40724;53.196;5.980;2023-02-11T05:35:42;17.10;;;12.05;;
54823;SDS011;40724;53.196;5.980;2023-02-11T05:38:08;20.95;;;12.23;;
54823;SDS011;40724;53.196;5.980;2023-02-11T05:40:34;26.35;;;13.55;;
54823;SDS011;40724;53.196;5.980;2023-02-11T05:43:00;24.73;;;12.82;;
54823;SDS011;40724;53.196;5.980;2023-02-11T05:45:26;20.80;;;13.43;;
54823;SDS011;40724;53.196;5.980;2023-02-11T05:47:52;17.75;;;12.35;;
54823;SDS011;40724;53.196;5.980;2023-02-11T05:50:18;22.92;;;13.70;;
54823;SDS011;40724;53.196;5.980;2023-02-11T05:52:44;23.73;;;14.35;;
54823;SDS011;40724;53.196;5.980;2023-02-11T05:55:10;22.60;;;14.85;;
54823;SDS011;40724;53.196;5.980;2023-02-11T05:57:35;27.02;;;13.98;;
54823;SDS011;40724;53.196;5.980;2023-02-11T06:00:02;23.80;;;14.30;;
54823;SDS011;40724;53.196;5.980;2023-02-11T06:02:28;26.20;;;13.52;;
54823;SDS011;40724;53.196;5.980;2023-02-11T06:04:54;26.15;;;13.50;;
54823;SDS011;40724;53.196;5.980;2023-02-11T06:07:20;26.75;;;13.13;;
54823;SDS011;40724;53.196;5.980;2023-02-11T06:09:46;27.63;;;13.65;;
54823;SDS011;40724;53.196;5.980;2023-02-11T06:12:12;31.63;;;13.93;;
54823;SDS011;40724;53.196;5.980;2023-02-11T06:14:37;21.85;;;13.77;;
54823;SDS011;40724;53.196;5.980;2023-02-11T06:17:03;23.08;;;14.80;;
54823;SDS011;40724;53.196;5.980;2023-02-11T06:19:29;21.95;;;13.25;;
54823;SDS011;40724;53.196;5.980;2023-02-11T06:21:55;21.85;;;13.18;;
54823;SDS011;40724;53.196;5.980;2023-02-11T06:24:21;30.17;;;12.95;;
54823;SDS011;40724;53.196;5.980;2023-02-11T06:26:48;30.80;;;13.50;;
54823;SDS011;40724;53.196;5.980;2023-02-11T06:29:14;30.92;;;13.32;;
54823;SDS011;40724;53.196;5.980;2023-02-11T06:31:40;25.00;;;15.07;;
54823;SDS011;40724;53.196;5.980;2023-02-11T06:34:07;24.60;;;14.55;;
54823;SDS011;40724;53.196;5.980;2023-02-11T06:36:33;26.33;;;14.13;;
54823;SDS011;40724;53.196;5.980;2023-02-11T06:38:59;24.45;;;13.52;;
54823;SDS011;40724;53.196;5.980;2023-02-11T06:41:25;20.95;;;13.93;;
54823;SDS011;40724;53.196;5.980;2023-02-11T06:43:52;22.83;;;13.23;;
54823;SDS011;40724;53.196;5.980;2023-02-11T06:46:17;22.65;;;15.05;;
54823;SDS011;40724;53.196;5.980;2023-02-11T06:48:43;31.52;;;15.52;;
54823;SDS011;40724;53.196;5.980;2023-02-11T06:51:10;22.55;;;13.48;;
54823;SDS011;40724;53.196;5.980;2023-02-11T06:53:38;26.55;;;14.27;;
54823;SDS011;40724;53.196;5.980;2023-02-11T06:56:09;23.17;;;13.00;;
54823;SDS011;40724;53.196;5.980;2023-02-11T06:58:38;27.27;;;13.95;;
54823;SDS011;40724;53.196;5.980;2023-02-11T07:01:07;21.40;;;13.50;;
54823;SDS011;40724;53.196;5.980;2023-02-11T07:03:36;27.80;;;12.75;;
54823;SDS011;40724;53.196;5.980;2023-02-11T07:06:03;22.85;;;13.15;;
54823;SDS011;40724;53.196;5.980;2023-02-11T07:08:34;24.90;;;13.50;;
54823;SDS011;40724;53.196;5.980;2023-02-11T07:11:07;20.52;;;14.05;;
54823;SDS011;40724;53.196;5.980;2023-02-11T07:13:37;25.17;;;13.10;;
54823;SDS011;40724;53.196;5.980;2023-02-11T07:16:06;23.13;;;13.40;;
54823;SDS011;40724;53.196;5.980;2023-02-11T07:18:33;20.92;;;12.45;;
54823;SDS011;40724;53.196;5.980;2023-02-11T07:20:59;22.08;;;13.30;;
54823;SDS011;40724;53.196;5.980;2023-02-11T07:23:29;23.58;;;12.30;;
54823;SDS011;40724;53.196;5.980;2023-02-11T07:25:55;22.40;;;13.93;;
54823;SDS011;40724;53.196;5.980;2023-02-11T07:28:20;26.50;;;11.98;;
54823;SDS011;40724;53.196;5.980;2023-02-11T07:30:46;24.27;;;14.07;;
54823;SDS011;40724;53.196;5.980;2023-02-11T07:33:12;25.08;;;13.00;;
54823;SDS011;40724;53.196;5.980;2023-02-11T07:35:38;24.95;;;13.80;;
54823;SDS011;40724;53.196;5.980;2023-02-11T07:38:04;23.42;;;12.98;;
54823;SDS011;40724;53.196;5.980;2023-02-11T07:40:29;29.35;;;14.02;;
54823;SDS011;40724;53.196;5.980;2023-02-11T07:42:55;23.45;;;13.30;;
54823;SDS011;40724;53.196;5.980;2023-02-11T07:45:21;27.13;;;12.98;;
54823;SDS011;40724;53.196;5.980;2023-02-11T07:47:49;27.48;;;12.52;;
54823;SDS011;40724;53.196;5.980;2023-02-11T07:50:15;25.08;;;12.57;;
54823;SDS011;40724;53.196;5.980;2023-02-11T07:52:42;20.95;;;11.82;;
54823;SDS011;40724;53.196;5.980;2023-02-11T07:55:08;21.25;;;10.95;;
54823;SDS011;40724;53.196;5.980;2023-02-11T07:57:34;32.05;;;12.77;;
54823;SDS011;40724;53.196;5.980;2023-02-11T08:00:00;25.88;;;12.60;;
54823;SDS011;40724;53.196;5.980;2023-02-11T08:02:26;21.60;;;10.93;;
54823;SDS011;40724;53.196;5.980;2023-02-11T08:04:52;18.85;;;12.00;;
54823;SDS011;40724;53.196;5.980;2023-02-11T08:07:18;18.10;;;10.15;;
54823;SDS011;40724;53.196;5.980;2023-02-11T08:09:44;22.98;;;12.30;;
54823;SDS011;40724;53.196;5.980;2023-02-11T08:12:10;35.92;;;12.32;;
54823;SDS011;40724;53.196;5.980;2023-02-11T08:14:36;21.58;;;10.35;;
54823;SDS011;40724;53.196;5.980;2023-02-11T08:17:02;22.25;;;11.18;;
54823;SDS011;40724;53.196;5.980;2023-02-11T08:19:27;18.33;;;10.60;;
54823;SDS011;40724;53.196;5.980;2023-02-11T08:21:54;25.13;;;12.30;;
54823;SDS011;40724;53.196;5.980;2023-02-11T08:24:20;19.02;;;10.70;;
54823;SDS011;40724;53.196;5.980;2023-02-11T08:26:46;21.52;;;11.90;;
54823;SDS011;40724;53.196;5.980;2023-02-11T08:29:13;22.33;;;10.77;;
54823;SDS011;40724;53.196;5.980;2023-02-11T08:31:40;20.92;;;11.05;;
54823;SDS011;40724;53.196;5.980;2023-02-11T08:34:07;21.85;;;11.18;;
54823;SDS011;40724;53.196;5.980;2023-02-11T08:36:36;22.52;;;11.73;;
54823;SDS011;40724;53.196;5.980;2023-02-11T08:39:03;19.27;;;10.68;;
54823;SDS011;40724;53.196;5.980;2023-02-11T08:41:31;19.58;;;10.10;;
54823;SDS011;40724;53.196;5.980;2023-02-11T08:43:58;20.58;;;11.63;;
54823;SDS011;40724;53.196;5.980;2023-02-11T08:46:24;23.13;;;11.85;;
54823;SDS011;40724;53.196;5.980;2023-02-11T08:48:50;27.92;;;11.20;;
54823;SDS011;40724;53.196;5.980;2023-02-11T08:51:18;20.23;;;10.48;;
54823;SDS011;40724;53.196;5.980;2023-02-11T08:53:45;17.60;;;11.30;;
54823;SDS011;40724;53.196;5.980;2023-02-11T08:56:11;26.02;;;10.65;;
54823;SDS011;40724;53.196;5.980;2023-02-11T08:58:38;19.50;;;10.68;;
54823;SDS011;40724;53.196;5.980;2023-02-11T09:01:11;18.67;;;10.63;;
54823;SDS011;40724;53.196;5.980;2023-02-11T09:03:38;21.70;;;10.25;;
54823;SDS011;40724;53.196;5.980;2023-02-11T09:06:05;20.92;;;9.13;;
54823;SDS011;40724;53.196;5.980;2023-02-11T09:08:35;17.70;;;9.40;;
54823;SDS011;40724;53.196;5.980;2023-02-11T09:11:02;24.85;;;11.77;;
54823;SDS011;40724;53.196;5.980;2023-02-11T09:13:29;23.05;;;9.85;;
54823;SDS011;40724;53.196;5.980;2023-02-11T09:15:55;15.75;;;8.85;;
54823;SDS011;40724;53.196;5.980;2023-02-11T09:18:22;19.10;;;8.77;;
54823;SDS011;40724;53.196;5.980;2023-02-11T09:20:48;18.55;;;8.65;;
54823;SDS011;40724;53.196;5.980;2023-02-11T09:23:13;19.63;;;9.15;;
54823;SDS011;40724;53.196;5.980;2023-02-11T09:25:39;21.60;;;9.52;;
54823;SDS011;40724;53.196;5.980;2023-02-11T09:28:06;14.38;;;8.75;;
54823;SDS011;40724;53.196;5.980;2023-02-11T09:30:33;15.45;;;8.32;;
54823;SDS011;40724;53.196;5.980;2023-02-11T09:33:00;16.42;;;7.75;;
54823;SDS011;40724;53.196;5.980;2023-02-11T09:35:26;20.40;;;7.45;;
54823;SDS011;40724;53.196;5.980;2023-02-11T09:37:53;20.08;;;8.05;;
54823;SDS011;40724;53.196;5.980;2023-02-11T09:40:19;17.00;;;7.30;;
54823;SDS011;40724;53.196;5.980;2023-02-11T09:45:40;15.80;;;8.40;;
54823;SDS011;40724;53.196;5.980;2023-02-11T09:48:24;18.40;;;7.22;;
54823;SDS011;40724;53.196;5.980;2023-02-11T09:50:51;17.13;;;7.32;;
54823;SDS011;40724;53.196;5.980;2023-02-11T09:53:25;13.05;;;6.55;;
54823;SDS011;40724;53.196;5.980;2023-02-11T09:55:59;18.52;;;6.82;;
54823;SDS011;40724;53.196;5.980;2023-02-11T09:58:33;17.65;;;7.25;;
54823;SDS011;40724;53.196;5.980;2023-02-11T10:01:06;16.30;;;7.28;;
54823;SDS011;40724;53.196;5.980;2023-02-11T10:06:52;11.85;;;6.03;;
54823;SDS011;40724;53.196;5.980;2023-02-11T10:09:31;16.55;;;7.30;;
54823;SDS011;40724;53.196;5.980;2023-02-11T10:22:47;12.88;;;6.07;;
54823;SDS011;40724;53.196;5.980;2023-02-11T10:25:26;15.05;;;6.15;;
54823;SDS011;40724;53.196;5.980;2023-02-11T10:27:58;18.17;;;6.32;;
54823;SDS011;40724;53.196;5.980;2023-02-11T10:30:38;15.80;;;6.22;;
54823;SDS011;40724;53.196;5.980;2023-02-11T10:33:15;16.20;;;5.85;;
54823;SDS011;40724;53.196;5.980;2023-02-11T10:35:42;15.80;;;6.88;;
54823;SDS011;40724;53.196;5.980;2023-02-11T10:38:10;17.02;;;6.55;;
54823;SDS011;40724;53.196;5.980;2023-02-11T10:40:36;11.82;;;6.00;;
54823;SDS011;40724;53.196;5.980;2023-02-11T10:43:03;12.98;;;6.97;;
54823;SDS011;40724;53.196;5.980;2023-02-11T10:47:58;12.05;;;5.63;;
54823;SDS011;40724;53.196;5.980;2023-02-11T10:50:29;15.43;;;5.50;;
54823;SDS011;40724;53.196;5.980;2023-02-11T10:53:17;11.30;;;5.13;;
54823;SDS011;40724;53.196;5.980;2023-02-11T10:55:52;15.93;;;5.82;;
54823;SDS011;40724;53.196;5.980;2023-02-11T11:01:01;9.07;;;5.30;;
54823;SDS011;40724;53.196;5.980;2023-02-11T11:03:45;18.13;;;4.82;;
54823;SDS011;40724;53.196;5.980;2023-02-11T11:06:12;13.43;;;5.15;;
54823;SDS011;40724;53.196;5.980;2023-02-11T11:11:11;11.18;;;5.57;;
54823;SDS011;40724;53.196;5.980;2023-02-11T11:13:41;13.13;;;5.30;;
54823;SDS011;40724;53.196;5.980;2023-02-11T11:16:26;12.48;;;4.63;;
54823;SDS011;40724;53.196;5.980;2023-02-11T11:24:09;14.25;;;6.30;;
54823;SDS011;40724;53.196;5.980;2023-02-11T11:26:40;15.85;;;5.50;;
54823;SDS011;40724;53.196;5.980;2023-02-11T11:29:08;13.88;;;4.43;;
54823;SDS011;40724;53.196;5.980;2023-02-11T11:31:43;12.40;;;5.47;;
54823;SDS011;40724;53.196;5.980;2023-02-11T11:34:18;14.27;;;4.82;;
54823;SDS011;40724;53.196;5.980;2023-02-11T11:36:46;12.10;;;4.53;;
54823;SDS011;40724;53.196;5.980;2023-02-11T11:39:23;20.45;;;5.78;;
54823;SDS011;40724;53.196;5.980;2023-02-11T11:41:52;16.65;;;5.28;;
54823;SDS011;40724;53.196;5.980;2023-02-11T11:49:40;10.45;;;4.55;;
54823;SDS011;40724;53.196;5.980;2023-02-11T11:52:17;10.60;;;4.03;;
54823;SDS011;40724;53.196;5.980;2023-02-11T11:54:45;8.77;;;4.57;;
54823;SDS011;40724;53.196;5.980;2023-02-11T11:57:17;8.80;;;3.67;;
54823;SDS011;40724;53.196;5.980;2023-02-11T11:59:44;9.35;;;4.13;;
54823;SDS011;40724;53.196;5.980;2023-02-11T12:07:26;11.77;;;4.18;;
54823;SDS011;40724;53.196;5.980;2023-02-11T12:10:15;20.13;;;5.25;;
54823;SDS011;40724;53.196;5.980;2023-02-11T12:20:16;12.40;;;3.88;;
54823;SDS011;40724;53.196;5.980;2023-02-11T12:25:24;7.82;;;3.60;;
54823;SDS011;40724;53.196;5.980;2023-02-11T12:28:14;19.15;;;5.80;;
54823;SDS011;40724;53.196;5.980;2023-02-11T12:30:48;12.45;;;3.22;;
54823;SDS011;40724;53.196;5.980;2023-02-11T12:33:28;9.23;;;3.88;;
54823;SDS011;40724;53.196;5.980;2023-02-11T12:44:08;12.90;;;3.67;;
54823;SDS011;40724;53.196;5.980;2023-02-11T12:46:44;13.73;;;3.70;;
54823;SDS011;40724;53.196;5.980;2023-02-11T12:51:56;12.75;;;3.97;;
54823;SDS011;40724;53.196;5.980;2023-02-11T12:54:30;9.98;;;3.67;;
54823;SDS011;40724;53.196;5.980;2023-02-11T13:01:56;12.52;;;3.40;;
54823;SDS011;40724;53.196;5.980;2023-02-11T13:06:54;8.98;;;4.05;;
54823;SDS011;40724;53.196;5.980;2023-02-11T13:09:29;7.72;;;3.28;;
54823;SDS011;40724;53.196;5.980;2023-02-11T13:11:57;11.40;;;4.07;;
54823;SDS011;40724;53.196;5.980;2023-02-11T13:14:44;15.70;;;3.85;;
54823;SDS011;40724;53.196;5.980;2023-02-11T13:17:33;11.10;;;4.18;;
54823;SDS011;40724;53.196;5.980;2023-02-11T13:19:59;7.13;;;4.15;;
54823;SDS011;40724;53.196;5.980;2023-02-11T13:25:13;14.75;;;4.07;;
54823;SDS011;40724;53.196;5.980;2023-02-11T13:27:50;18.60;;;4.57;;
54823;SDS011;40724;53.196;5.980;2023-02-11T13:30:29;10.55;;;4.53;;
54823;SDS011;40724;53.196;5.980;2023-02-11T13:35:37;9.25;;;3.75;;
54823;SDS011;40724;53.196;5.980;2023-02-11T13:38:04;16.52;;;5.30;;
54823;SDS011;40724;53.196;5.980;2023-02-11T13:40:35;10.27;;;3.83;;
54823;SDS011;40724;53.196;5.980;2023-02-11T13:43:04;9.55;;;2.92;;
54823;SDS011;40724;53.196;5.980;2023-02-11T13:45:39;10.48;;;4.18;;
54823;SDS011;40724;53.196;5.980;2023-02-11T13:48:12;10.25;;;4.18;;
54823;SDS011;40724;53.196;5.980;2023-02-11T13:50:44;12.38;;;5.05;;
54823;SDS011;40724;53.196;5.980;2023-02-11T13:53:12;8.70;;;4.05;;
54823;SDS011;40724;53.196;5.980;2023-02-11T13:55:38;8.20;;;2.83;;
54823;SDS011;40724;53.196;5.980;2023-02-11T14:06:09;11.57;;;3.42;;
54823;SDS011;40724;53.196;5.980;2023-02-11T14:19:29;6.60;;;2.95;;
54823;SDS011;40724;53.196;5.980;2023-02-11T14:22:04;19.33;;;4.40;;
54823;SDS011;40724;53.196;5.980;2023-02-11T14:29:42;13.93;;;3.97;;
54823;SDS011;40724;53.196;5.980;2023-02-11T14:34:59;13.00;;;4.25;;
54823;SDS011;40724;53.196;5.980;2023-02-11T14:37:33;13.50;;;3.58;;
54823;SDS011;40724;53.196;5.980;2023-02-11T14:42:43;11.13;;;3.45;;
54823;SDS011;40724;53.196;5.980;2023-02-11T14:45:10;13.90;;;3.17;;
54823;SDS011;40724;53.196;5.980;2023-02-11T14:47:40;10.75;;;3.38;;
54823;SDS011;40724;53.196;5.980;2023-02-11T14:50:23;11.55;;;3.63;;
54823;SDS011;40724;53.196;5.980;2023-02-11T14:52:50;13.07;;;3.28;;
54823;SDS011;40724;53.196;5.980;2023-02-11T14:55:22;8.23;;;3.75;;
54823;SDS011;40724;53.196;5.980;2023-02-11T15:00:57;13.13;;;3.05;;
54823;SDS011;40724;53.196;5.980;2023-02-11T15:05:54;12.30;;;3.53;;
54823;SDS011;40724;53.196;5.980;2023-02-11T15:08:21;8.95;;;3.22;;
54823;SDS011;40724;53.196;5.980;2023-02-11T15:10:47;12.77;;;4.05;;
54823;SDS011;40724;53.196;5.980;2023-02-11T15:13:15;12.63;;;4.78;;
54823;SDS011;40724;53.196;5.980;2023-02-11T15:15:43;17.33;;;4.93;;
54823;SDS011;40724;53.196;5.980;2023-02-11T15:18:15;30.88;;;12.25;;
54823;SDS011;40724;53.196;5.980;2023-02-11T15:20:45;16.13;;;6.25;;
54823;SDS011;40724;53.196;5.980;2023-02-11T15:23:21;9.18;;;3.63;;
54823;SDS011;40724;53.196;5.980;2023-02-11T15:25:48;11.35;;;3.35;;
54823;SDS011;40724;53.196;5.980;2023-02-11T15:28:23;11.35;;;3.15;;
54823;SDS011;40724;53.196;5.980;2023-02-11T15:31:24;10.52;;;4.03;;
54823;SDS011;40724;53.196;5.980;2023-02-11T15:33:42;9.43;;;3.30;;
54823;SDS011;40724;53.196;5.980;2023-02-11T15:36:12;7.72;;;3.67;;
54823;SDS011;40724;53.196;5.980;2023-02-11T15:38:39;10.45;;;3.92;;
54823;SDS011;40724;53.196;5.980;2023-02-11T15:41:05;14.73;;;3.95;;
54823;SDS011;40724;53.196;5.980;2023-02-11T15:43:44;10.43;;;3.97;;
54823;SDS011;40724;53.196;5.980;2023-02-11T15:46:15;6.60;;;2.88;;
54823;SDS011;40724;53.196;5.980;2023-02-11T15:48:44;12.45;;;3.53;;
54823;SDS011;40724;53.196;5.980;2023-02-11T15:51:17;13.77;;;3.60;;
54823;SDS011;40724;53.196;5.980;2023-02-11T15:53:47;15.40;;;4.53;;
54823;SDS011;40724;53.196;5.980;2023-02-11T15:56:21;13.27;;;3.63;;
54823;SDS011;40724;53.196;5.980;2023-02-11T15:58:50;13.15;;;3.40;;
54823;SDS011;40724;53.196;5.980;2023-02-11T16:01:16;11.40;;;4.22;;
54823;SDS011;40724;53.196;5.980;2023-02-11T16:03:43;11.23;;;4.00;;
54823;SDS011;40724;53.196;5.980;2023-02-11T16:06:16;17.40;;;4.63;;
54823;SDS011;40724;53.196;5.980;2023-02-11T16:08:54;7.95;;;3.47;;
54823;SDS011;40724;53.196;5.980;2023-02-11T16:11:52;14.52;;;4.45;;
54823;SDS011;40724;53.196;5.980;2023-02-11T16:14:23;15.77;;;6.00;;
54823;SDS011;40724;53.196;5.980;2023-02-11T16:17:02;10.93;;;4.05;;
54823;SDS011;40724;53.196;5.980;2023-02-11T16:19:29;18.80;;;4.25;;
54823;SDS011;40724;53.196;5.980;2023-02-11T16:21:57;12.60;;;4.30;;
54823;SDS011;40724;53.196;5.980;2023-02-11T16:24:28;10.98;;;3.63;;
54823;SDS011;40724;53.196;5.980;2023-02-11T16:26:56;14.20;;;3.15;;
54823;SDS011;40724;53.196;5.980;2023-02-11T16:29:30;17.83;;;4.82;;
54823;SDS011;40724;53.196;5.980;2023-02-11T16:32:04;10.48;;;3.47;;
54823;SDS011;40724;53.196;5.980;2023-02-11T16:34:31;12.50;;;3.20;;
54823;SDS011;40724;53.196;5.980;2023-02-11T16:36:57;23.48;;;3.92;;
54823;SDS011;40724;53.196;5.980;2023-02-11T16:39:23;12.43;;;4.00;;
54823;SDS011;40724;53.196;5.980;2023-02-11T16:41:50;19.15;;;4.85;;
54823;SDS011;40724;53.196;5.980;2023-02-11T16:44:17;7.78;;;2.95;;
54823;SDS011;40724;53.196;5.980;2023-02-11T16:46:43;12.70;;;4.32;;
54823;SDS011;40724;53.196;5.980;2023-02-11T16:51:51;12.88;;;3.92;;
54823;SDS011;40724;53.196;5.980;2023-02-11T16:54:21;11.63;;;3.83;;
54823;SDS011;40724;53.196;5.980;2023-02-11T16:56:47;9.88;;;3.58;;
54823;SDS011;40724;53.196;5.980;2023-02-11T16:59:14;8.23;;;3.58;;
54823;SDS011;40724;53.196;5.980;2023-02-11T17:01:40;20.17;;;5.47;;
54823;SDS011;40724;53.196;5.980;2023-02-11T17:04:26;8.38;;;4.10;;
54823;SDS011;40724;53.196;5.980;2023-02-11T17:06:54;10.05;;;3.30;;
54823;SDS011;40724;53.196;5.980;2023-02-11T17:09:22;11.27;;;4.18;;
54823;SDS011;40724;53.196;5.980;2023-02-11T17:11:49;9.65;;;4.40;;
54823;SDS011;40724;53.196;5.980;2023-02-11T17:14:16;14.60;;;4.82;;
54823;SDS011;40724;53.196;5.980;2023-02-11T17:16:42;11.35;;;4.43;;
54823;SDS011;40724;53.196;5.980;2023-02-11T17:19:13;8.45;;;3.90;;